createdAt,value
2023-11-21T00:02:47.044Z,14.64
2023-11-21T00:07:48.882Z,13.97
2023-11-21T00:12:56.558Z,14.63
2023-11-21T00:18:00.675Z,14.61
2023-11-21T00:23:05.386Z,14.69
2023-11-21T00:28:09.534Z,14.54
2023-11-21T00:33:11.531Z,14.74
2023-11-21T00:38:21.115Z,15.16
2023-11-21T00:43:26.115Z,15.48
2023-11-21T00:48:30.467Z,15.62
2023-11-21T00:53:32.415Z,15.73
2023-11-21T00:58:34.414Z,15.49
2023-11-21T01:03:38.995Z,15.75
2023-11-21T01:08:41.182Z,15.49
2023-11-21T01:13:43.890Z,15.43
2023-11-21T01:18:48.068Z,15.38
2023-11-21T01:23:49.975Z,17.13
2023-11-21T01:28:52.004Z,15.92
2023-11-21T01:33:56.616Z,16.48
2023-11-21T01:39:01.128Z,15.88
2023-11-21T01:44:09.173Z,14.14
2023-11-21T01:49:14.871Z,13.79
2023-11-21T01:54:21.148Z,13.98
2023-11-21T01:59:25.226Z,13.89
2023-11-21T02:04:27.198Z,14.09
2023-11-21T02:09:31.100Z,13.82
2023-11-21T02:14:33.338Z,13.86
2023-11-21T02:19:35.789Z,13.86
2023-11-21T02:24:45.426Z,13.87
2023-11-21T02:29:47.443Z,13.92
2023-11-21T02:34:49.444Z,14.12
2023-11-21T02:39:56.279Z,13.91
2023-11-21T02:45:00.372Z,13.99
2023-11-21T02:50:05.265Z,13.98
2023-11-21T02:55:09.911Z,13.82
2023-11-21T03:00:16.416Z,13.90
2023-11-21T03:05:18.429Z,13.78
2023-11-21T03:10:20.638Z,13.64
2023-11-21T03:15:25.664Z,13.74
2023-11-21T03:20:27.663Z,13.97
2023-11-21T03:25:30.328Z,13.80
2023-11-21T03:30:32.480Z,13.91
2023-11-21T03:35:34.397Z,13.92
2023-11-21T03:40:36.924Z,13.87
2023-11-21T03:45:38.907Z,13.68
2023-11-21T03:50:40.930Z,13.85
2023-11-21T03:55:43.066Z,13.61
2023-11-21T04:00:45.083Z,13.68
2023-11-21T04:05:47.395Z,13.71
2023-11-21T04:10:49.999Z,13.50
2023-11-21T04:15:52.408Z,13.38
2023-11-21T04:20:54.389Z,13.29
2023-11-21T04:25:58.344Z,13.25
2023-11-21T04:31:03.914Z,13.36
2023-11-21T04:36:06.314Z,13.15
2023-11-21T04:41:09.018Z,13.21
2023-11-21T04:46:13.381Z,13.43
2023-11-21T04:51:17.584Z,13.49
2023-11-21T04:56:22.186Z,13.48
2023-11-21T05:01:24.358Z,13.79
2023-11-21T05:06:26.207Z,13.61
2023-11-21T05:11:30.379Z,13.29
2023-11-21T05:16:35.773Z,13.59
2023-11-21T05:21:37.838Z,13.73
2023-11-21T05:26:40.741Z,13.30
2023-11-21T05:31:44.768Z,13.67
2023-11-21T05:36:49.797Z,13.56
2023-11-21T05:41:59.141Z,13.24
2023-11-21T05:47:01.283Z,13.52
2023-11-21T05:52:03.485Z,13.43
2023-11-21T05:57:05.669Z,13.12
2023-11-21T06:02:09.177Z,13.24
2023-11-21T06:07:11.992Z,13.28
2023-11-21T06:12:17.501Z,13.09
2023-11-21T06:17:26.376Z,13.12
2023-11-21T06:22:28.419Z,13.18
2023-11-21T06:27:30.936Z,13.01
2023-11-21T06:32:32.841Z,12.84
2023-11-21T06:37:37.321Z,12.89
2023-11-21T06:42:39.742Z,12.84
2023-11-21T06:47:41.813Z,12.85
2023-11-21T06:52:44.900Z,12.85
2023-11-21T06:57:48.666Z,12.50
2023-11-21T07:02:50.777Z,12.68
2023-11-21T07:07:55.383Z,12.45
2023-11-21T07:13:00.116Z,12.40
2023-11-21T07:18:02.374Z,12.34
2023-11-21T07:23:05.311Z,12.19
2023-11-21T07:28:07.177Z,12.49
2023-11-21T07:33:12.949Z,12.54
2023-11-21T07:38:17.177Z,12.57
2023-11-21T07:43:20.951Z,12.41
2023-11-21T07:48:23.207Z,12.42
2023-11-21T07:53:30.142Z,12.66
2023-11-21T07:58:32.328Z,12.58
2023-11-21T08:03:34.272Z,12.60
2023-11-21T08:08:36.367Z,12.66
2023-11-21T08:13:40.854Z,12.43
2023-11-21T08:18:43.090Z,13.01
2023-11-21T08:23:45.013Z,13.02
2023-11-21T08:28:48.692Z,12.95
2023-11-21T08:33:50.817Z,12.92
2023-11-21T08:38:56.196Z,12.75
2023-11-21T08:44:00.650Z,12.78
2023-11-21T08:49:02.803Z,12.57
2023-11-21T08:54:09.036Z,12.83
2023-11-21T08:59:10.842Z,12.72
2023-11-21T09:04:12.796Z,12.73
2023-11-21T09:09:15.735Z,12.76
2023-11-21T09:14:19.357Z,12.75
2023-11-21T09:19:21.286Z,13.15
2023-11-21T09:24:23.188Z,13.28
2023-11-21T09:29:24.977Z,13.11
2023-11-21T09:34:27.326Z,13.25
2023-11-21T09:43:19.938Z,13.40
2023-11-21T09:48:27.020Z,13.86
2023-11-21T09:53:33.311Z,14.08
2023-11-21T09:58:35.904Z,13.94
2023-11-21T10:03:40.302Z,14.26
2023-11-21T10:08:49.953Z,14.28
2023-11-21T10:14:03.659Z,14.27
2023-11-21T10:19:11.618Z,14.40
2023-11-21T10:24:14.227Z,14.06
2023-11-21T10:29:19.866Z,14.16
2023-11-21T10:34:22.742Z,14.36
2023-11-21T10:39:32.378Z,14.33
2023-11-21T10:44:37.883Z,14.48
2023-11-21T10:49:41.675Z,14.55
2023-11-21T10:54:46.192Z,14.46
2023-11-21T10:59:52.192Z,14.62
2023-11-21T11:04:54.551Z,14.36
2023-11-21T11:09:56.618Z,14.59
2023-11-21T11:14:59.026Z,14.73
2023-11-21T11:20:00.969Z,14.90
2023-11-21T11:25:27.603Z,15.03
2023-11-21T11:30:50.102Z,14.97
2023-11-21T11:36:08.983Z,14.99
2023-11-21T11:41:11.589Z,15.02
2023-11-21T11:46:16.789Z,14.64
2023-11-21T11:51:20.091Z,15.02
2023-11-21T11:56:28.076Z,15.39
2023-11-21T12:01:34.474Z,15.52
2023-11-21T12:06:38.934Z,15.49
2023-11-21T12:11:42.620Z,15.56
2023-11-21T12:16:45.240Z,15.47
2023-11-21T12:21:47.448Z,15.62
2023-11-21T12:26:51.671Z,15.54
2023-11-21T12:31:53.851Z,15.46
2023-11-21T12:36:56.770Z,15.38
2023-11-21T12:41:59.138Z,15.20
2023-11-21T12:47:01.301Z,15.20
2023-11-21T12:52:05.701Z,15.22
2023-11-21T12:57:09.679Z,15.05
2023-11-21T13:02:17.108Z,15.30
2023-11-21T13:07:19.081Z,15.05
2023-11-21T13:12:26.237Z,15.34
2023-11-21T13:17:28.120Z,15.10
2023-11-21T13:22:34.446Z,15.25
2023-11-21T13:27:38.250Z,15.36
2023-11-21T13:32:41.962Z,15.25
2023-11-21T13:37:45.805Z,15.40
2023-11-21T13:42:47.617Z,15.09
2023-11-21T13:47:52.498Z,15.33
2023-11-21T13:52:55.336Z,15.37
2023-11-21T13:57:57.213Z,15.51
2023-11-21T14:03:02.509Z,15.79
2023-11-21T14:08:06.442Z,15.95
2023-11-21T14:18:37.268Z,14.61
2023-11-21T14:23:40.377Z,13.62
2023-11-21T14:28:43.726Z,13.97
2023-11-21T14:33:47.363Z,13.43
2023-11-21T14:38:50.082Z,13.43
2023-11-21T14:43:53.353Z,15.48
2023-11-21T14:49:02.418Z,14.37
2023-11-21T14:54:13.541Z,15.55
2023-11-21T14:59:19.042Z,15.82
2023-11-21T15:04:37.835Z,16.01
2023-11-21T15:09:43.557Z,15.75
2023-11-21T15:14:53.460Z,15.68
2023-11-21T15:19:55.860Z,15.42
2023-11-21T15:24:58.996Z,15.69
2023-11-21T15:30:04.564Z,15.62
2023-11-21T15:35:06.841Z,15.28
2023-11-21T15:40:10.404Z,15.17
2023-11-21T15:45:15.186Z,15.33
2023-11-21T15:50:19.503Z,15.21
2023-11-21T15:55:21.492Z,15.28
2023-11-21T16:00:25.489Z,15.25
2023-11-21T16:05:27.462Z,15.04
2023-11-21T16:10:29.542Z,15.00
2023-11-21T16:15:35.188Z,14.75
2023-11-21T16:20:37.133Z,15.17
2023-11-21T16:25:39.049Z,15.23
2023-11-21T16:30:41.768Z,15.11
2023-11-21T16:35:43.752Z,15.00
2023-11-21T16:40:47.047Z,15.21
2023-11-21T16:45:53.359Z,15.07
2023-11-21T16:50:55.406Z,15.06
2023-11-21T16:56:01.475Z,15.04
2023-11-21T17:01:08.597Z,15.08
2023-11-21T17:06:11.871Z,14.99
2023-11-21T17:11:15.079Z,15.19
2023-11-21T17:16:18.064Z,14.87
2023-11-21T17:21:26.138Z,15.04
2023-11-21T17:26:32.523Z,15.00
2023-11-21T17:31:36.751Z,14.94
2023-11-21T17:36:42.189Z,14.79
2023-11-21T17:41:44.180Z,14.93
2023-11-21T17:46:48.376Z,14.98
2023-11-21T17:51:50.427Z,14.93
2023-11-21T17:56:55.883Z,14.84
2023-11-21T18:02:00.081Z,15.04
2023-11-21T18:07:04.058Z,15.10
2023-11-21T18:12:06.964Z,15.03
2023-11-21T18:17:14.677Z,15.07
2023-11-21T18:22:16.716Z,15.14
2023-11-21T18:27:21.482Z,14.87
2023-11-21T18:32:27.463Z,15.00
2023-11-21T18:37:29.515Z,15.01
2023-11-21T18:42:33.714Z,15.24
2023-11-21T18:47:38.298Z,15.31
2023-11-21T18:52:45.113Z,15.08
2023-11-21T18:57:47.696Z,15.30
2023-11-21T19:02:49.718Z,15.18
2023-11-21T19:07:56.565Z,14.92
2023-11-21T19:12:58.514Z,15.15
2023-11-21T19:18:03.226Z,15.41
2023-11-21T19:23:08.321Z,15.42
2023-11-21T19:28:10.847Z,15.43
2023-11-21T19:33:13.096Z,15.25
2023-11-21T19:38:17.238Z,15.35
2023-11-21T19:43:19.509Z,15.41
2023-11-21T19:48:24.387Z,15.49
2023-11-21T19:53:26.243Z,15.47
2023-11-21T19:58:28.849Z,15.40
2023-11-21T20:03:30.870Z,15.31
2023-11-21T20:08:35.898Z,15.24
2023-11-21T20:13:40.085Z,15.21
2023-11-21T20:18:42.717Z,15.37
2023-11-21T20:23:47.902Z,15.36
2023-11-21T20:28:50.640Z,15.39
2023-11-21T20:33:52.553Z,15.20
2023-11-21T20:38:55.218Z,15.22
2023-11-21T20:43:59.961Z,15.45
2023-11-21T20:49:01.871Z,15.39
2023-11-21T20:54:05.638Z,15.11
2023-11-21T20:59:08.930Z,15.29
2023-11-21T21:04:11.737Z,15.05
2023-11-21T21:09:13.820Z,15.21
2023-11-21T21:14:15.822Z,15.37
2023-11-21T21:19:18.682Z,15.17
2023-11-21T21:24:22.863Z,15.12
2023-11-21T21:29:27.312Z,15.38
2023-11-21T21:34:29.256Z,15.29
2023-11-21T21:39:31.415Z,15.16
2023-11-21T21:44:35.505Z,15.26
2023-11-21T21:49:38.382Z,15.27
2023-11-21T21:54:43.442Z,15.36
2023-11-21T21:59:45.250Z,15.35
2023-11-21T22:04:47.112Z,15.26
2023-11-21T22:09:53.421Z,15.32
2023-11-21T22:14:57.599Z,15.07
2023-11-21T22:19:59.770Z,14.89
2023-11-21T22:25:01.781Z,15.23
2023-11-21T22:30:09.501Z,15.36
2023-11-21T22:35:14.181Z,15.25
2023-11-21T22:40:16.518Z,15.41
2023-11-21T22:45:19.373Z,15.20
2023-11-21T22:50:21.365Z,15.26
2023-11-21T22:55:23.278Z,15.39
2023-11-21T23:00:30.658Z,15.17
2023-11-21T23:05:32.696Z,15.21
2023-11-21T23:10:35.300Z,15.44
2023-11-21T23:15:37.475Z,13.13
2023-11-21T23:20:40.088Z,13.75
2023-11-21T23:25:42.184Z,13.63
2023-11-21T23:30:44.803Z,15.04
2023-11-21T23:35:47.401Z,14.84
2023-11-21T23:40:49.209Z,15.20
2023-11-21T23:45:51.028Z,15.05
2023-11-21T23:50:55.574Z,15.04
2023-11-21T23:56:00.289Z,15.02
